Terminal Aerodrome Forecast
Issued by NWS Medford, OR

Home | Current Version | Previous Version | Text Only | Print | Product List | Glossary On
Versions: 1 2 3 4 5 6 7 8 9 10 11 12 13 14 15 16 17 18 19 20
000
FTUS46 KMFR 301121
TAFMFR
TAF
KMFR 301121Z 3012/3112 00000KT 1SM BR BKN002
     FM301300 00000KT 1/4SM FG VV002
     FM301700 00000KT 4SM BR BKN004
     FM301800 VRB02KT P6SM SKC
     FM310900 00000KT 5SM BR SCT002
     FM311100 00000KT 1SM BR OVC002=

USA.gov is the U.S. government's official web portal to all federal, state and local government web resources and services.